X  Zatvori METAR podaci zračne luke     LFLL Lyon Saint-Exupéry Airport
Temperatura
9°C Temperatura
8°C Točka rosišta
94% Vlaga



Vjetar
14 KM/S
9 MPS
4 M/S
8 Čvorovi



150°
JJI
Trenutna situacija

Slaba Kiša Slaba Kiša
Tlak zraka 1014.92 (hPa) - 29.97 (inHg)
Vidljivost 6.2 (milje) - 10 (km)
Zračna luka
Kôd zračne luke LFLL

Lokacija: Lyon Saint-Exupéry Airport
Udaljenost: 67 (km)

Metar:
LFLL 281130Z 15008KT 9999 -RA BKN043 09/08 Q1015 NOSIG

Vrijeme: 28-11-2022 12:30 CET